Time;durP1;ratioP1;P1;durP2;ratioP2;P2;SDS_P1;SDS_P2;PMS_P1;PMS_P2;Temp;Humidity;BMP_temperature;BMP_pressure;BME280_temperature;BME280_humidity;BME280_pressure;Samples;Min_cycle;Max_cycle;Signal;HPM_P1;HPM_P2
2024/01/20 00:02:24;;;;;;;8.80;2.33;;;-1.60;99.90;;;;;;6290059;22;20117;-79
2024/01/20 00:04:53;;;;;;;10.63;2.85;;;-1.60;99.90;;;;;;6289757;22;20444;-79
2024/01/20 00:07:27;;;;;;;5.95;2.05;;;-1.50;99.90;;;;;;6289313;22;20015;-78
2024/01/20 00:09:56;;;;;;;9.40;2.58;;;-1.70;99.90;;;;;;6289183;22;20026;-79
2024/01/20 00:12:25;;;;;;;9.00;2.83;;;-1.80;99.90;;;;;;6288513;22;20023;-79
2024/01/20 00:14:55;;;;;;;11.82;3.38;;;-1.80;99.90;;;;;;6288809;22;20061;-79
2024/01/20 00:17:24;;;;;;;7.50;2.80;;;-1.80;99.90;;;;;;6288940;22;20011;-78
2024/01/20 00:19:56;;;;;;;8.10;3.45;;;-1.90;99.90;;;;;;6288816;22;20023;-79
2024/01/20 00:22:30;;;;;;;9.93;3.58;;;-1.90;99.90;;;;;;6282575;22;20023;-79
2024/01/20 00:25:02;;;;;;;8.73;3.40;;;-2.00;99.90;;;;;;6282967;22;20030;-79
2024/01/20 00:27:33;;;;;;;9.77;3.25;;;-2.00;99.90;;;;;;6281426;22;20077;-79
2024/01/20 00:30:04;;;;;;;10.07;3.28;;;-2.00;99.90;;;;;;6282122;22;20028;-79
2024/01/20 00:32:33;;;;;;;10.15;2.78;;;-2.00;99.90;;;;;;6254984;22;20464;-79
2024/01/20 00:35:04;;;;;;;9.48;2.65;;;-2.00;99.90;;;;;;6281690;22;20391;-79
2024/01/20 00:37:39;;;;;;;7.13;2.45;;;-2.10;99.90;;;;;;6255459;22;20020;-79
2024/01/20 00:40:10;;;;;;;8.30;3.57;;;-2.10;99.90;;;;;;6254659;22;20106;-79
2024/01/20 00:42:39;;;;;;;13.82;3.20;;;-2.10;99.90;;;;;;6281974;22;20686;-79
2024/01/20 00:45:14;;;;;;;9.45;3.88;;;-2.10;99.90;;;;;;6282370;22;20075;-78
2024/01/20 00:47:45;;;;;;;8.68;3.28;;;-2.10;99.90;;;;;;6255974;22;20020;-78
2024/01/20 00:50:14;;;;;;;11.15;3.28;;;-2.00;99.90;;;;;;6281840;22;20023;-78
2024/01/20 00:52:45;;;;;;;9.90;3.60;;;-2.00;99.90;;;;;;6239506;23;20059;-79
2024/01/20 00:55:14;;;;;;;7.60;3.03;;;-2.00;99.90;;;;;;6252555;23;20024;-78
2024/01/20 00:57:43;;;;;;;9.63;3.72;;;-2.00;99.90;;;;;;6251914;23;20095;-79
2024/01/20 01:00:12;;;;;;;7.88;3.15;;;-2.00;99.90;;;;;;6282367;22;20059;-79
2024/01/20 01:24:02;;;;;;;7.63;2.78;;;-1.30;99.90;;;;;;5919434;24;20057;-81
2024/01/20 01:27:19;;;;;;;13.40;4.20;;;-1.90;99.90;;;;;;5836211;24;20357;-79
2024/01/20 01:29:48;;;;;;;10.88;2.90;;;-1.80;99.90;;;;;;5838909;24;20032;-81
2024/01/20 01:35:14;;;;;;;10.43;3.50;;;-1.70;99.90;;;;;;6311534;22;20050;-80
2024/01/20 01:37:43;;;;;;;11.98;3.15;;;-1.60;99.90;;;;;;6324840;22;20023;-79
2024/01/20 01:40:13;;;;;;;7.22;3.25;;;-1.70;99.90;;;;;;6320940;22;20233;-80
2024/01/20 01:42:44;;;;;;;10.20;4.00;;;-1.50;99.90;;;;;;6321311;22;20060;-80
2024/01/20 01:45:14;;;;;;;14.60;4.53;;;-1.70;99.90;;;;;;6325029;22;20069;-80
2024/01/20 01:47:43;;;;;;;10.00;3.72;;;-1.50;99.90;;;;;;6323224;22;20015;-80
2024/01/20 01:50:12;;;;;;;9.40;3.35;;;-0.10;99.90;;;;;;6324245;22;20019;-79
2024/01/20 01:52:42;;;;;;;9.95;2.60;;;-0.70;99.90;;;;;;6323859;22;20019;-81
2024/01/20 01:55:11;;;;;;;9.02;3.17;;;-2.20;99.90;;;;;;6325103;22;20046;-80
2024/01/20 01:57:42;;;;;;;8.80;3.65;;;-1.40;99.90;;;;;;6326491;22;20081;-81
2024/01/20 02:00:13;;;;;;;10.45;4.10;;;-0.80;99.90;;;;;;6326131;22;20018;-80
2024/01/20 02:02:42;;;;;;;7.88;3.10;;;-1.70;99.90;;;;;;6325476;22;20014;-80
2024/01/20 02:05:14;;;;;;;8.40;3.15;;;-1.70;99.90;;;;;;6323425;22;20023;-79
2024/01/20 02:07:46;;;;;;;9.15;3.55;;;-0.50;99.90;;;;;;6326316;22;20046;-80
2024/01/20 02:10:17;;;;;;;11.63;3.92;;;-3.10;99.90;;;;;;6327045;22;19999;-79
2024/01/20 02:12:47;;;;;;;5.68;2.55;;;-1.50;99.90;;;;;;6304650;22;20011;-78
2024/01/20 02:15:17;;;;;;;7.45;3.42;;;-0.80;99.90;;;;;;6299466;22;20019;-78
2024/01/20 02:17:51;;;;;;;8.75;3.63;;;-1.70;99.90;;;;;;6300871;22;20048;-78
2024/01/20 02:20:20;;;;;;;10.88;4.50;;;-0.90;99.90;;;;;;6298987;22;20030;-78
2024/01/20 02:22:50;;;;;;;8.57;3.58;;;-1.70;99.90;;;;;;6299081;22;20499;-77
2024/01/20 02:25:18;;;;;;;10.80;4.20;;;-1.70;99.90;;;;;;6299617;22;20726;-77
2024/01/20 02:27:47;;;;;;;11.23;4.05;;;-1.70;99.90;;;;;;6300908;22;20019;-78
2024/01/20 02:30:15;;;;;;;9.13;3.65;;;-1.60;99.90;;;;;;6297666;22;20118;-78
2024/01/20 02:32:44;;;;;;;8.48;4.15;;;-0.90;99.90;;;;;;6297678;22;20031;-76
2024/01/20 02:35:13;;;;;;;14.88;5.82;;;-1.60;99.90;;;;;;6298940;22;20080;-77
2024/01/20 02:37:41;;;;;;;14.65;5.20;;;-1.60;99.90;;;;;;6299321;22;20031;-78
2024/01/20 02:40:12;;;;;;;7.97;3.63;;;-1.70;99.90;;;;;;6298616;22;20076;-78
2024/01/20 02:42:41;;;;;;;14.40;5.10;;;-1.60;99.90;;;;;;6299367;22;20111;-78
2024/01/20 02:45:11;;;;;;;10.25;3.92;;;-1.70;99.90;;;;;;6300043;22;20037;-77
2024/01/20 02:47:54;;;;;;;10.85;4.75;;;-1.60;99.90;;;;;;6296810;22;20030;-76
2024/01/20 02:50:23;;;;;;;13.30;4.13;;;-1.50;99.90;;;;;;6297651;22;20416;-77
2024/01/20 02:52:52;;;;;;;11.32;3.67;;;-1.50;99.90;;;;;;6293652;22;20047;-77
2024/01/20 02:55:22;;;;;;;11.95;4.35;;;-1.60;99.90;;;;;;6294548;22;20138;-76
2024/01/20 02:57:51;;;;;;;14.55;4.47;;;-1.00;99.90;;;;;;6299733;22;20026;-78
2024/01/20 03:00:20;;;;;;;11.70;4.28;;;-1.30;99.90;;;;;;6291665;22;20030;-78
2024/01/20 03:02:48;;;;;;;8.55;3.50;;;-1.60;99.90;;;;;;6294483;22;20050;-78
2024/01/20 03:05:17;;;;;;;9.55;3.10;;;-1.70;99.90;;;;;;6295137;22;20027;-77
2024/01/20 03:07:45;;;;;;;13.25;4.40;;;-1.70;99.90;;;;;;6294530;22;20022;-77
2024/01/20 03:10:14;;;;;;;10.35;4.07;;;-1.70;99.90;;;;;;6296250;22;20072;-78
2024/01/20 03:12:43;;;;;;;11.25;4.28;;;-1.80;99.90;;;;;;6294620;22;20084;-77
2024/01/20 03:15:12;;;;;;;8.40;3.03;;;-1.70;99.90;;;;;;6293560;22;20023;-78
2024/01/20 03:17:40;;;;;;;8.23;3.25;;;-1.70;99.90;;;;;;6293945;22;20015;-77
2024/01/20 03:20:10;;;;;;;10.35;4.57;;;-1.80;99.90;;;;;;6299495;22;20065;-76
2024/01/20 03:22:38;;;;;;;9.68;3.38;;;-1.80;99.90;;;;;;6301928;22;20030;-79
2024/01/20 03:25:08;;;;;;;10.40;3.75;;;-1.70;99.90;;;;;;6302903;22;20076;-78
2024/01/20 03:27:36;;;;;;;11.05;3.45;;;-1.80;99.90;;;;;;6302111;22;20043;-78
2024/01/20 03:30:08;;;;;;;10.98;4.03;;;-1.80;99.90;;;;;;6302128;22;20015;-78
2024/01/20 03:32:36;;;;;;;10.80;4.25;;;-1.80;99.90;;;;;;6306081;22;20030;-78
2024/01/20 03:35:05;;;;;;;11.88;3.50;;;-1.80;99.90;;;;;;6277655;22;20535;-78
2024/01/20 03:37:34;;;;;;;16.15;5.28;;;-1.90;99.90;;;;;;6301762;22;20023;-77
2024/01/20 03:40:09;;;;;;;12.68;4.05;;;-1.90;99.90;;;;;;6305243;22;20023;-78
2024/01/20 03:42:37;;;;;;;14.65;5.00;;;-1.90;99.90;;;;;;6302083;22;20023;-79
2024/01/20 03:45:08;;;;;;;13.30;5.28;;;-1.40;99.90;;;;;;6302391;22;20049;-78
2024/01/20 03:47:36;;;;;;;12.93;5.28;;;-1.90;99.90;;;;;;6300777;22;20109;-78
2024/01/20 03:50:06;;;;;;;12.60;4.50;;;-1.60;99.90;;;;;;6301817;22;20033;-78
2024/01/20 03:52:35;;;;;;;11.45;3.88;;;-1.90;99.90;;;;;;6298986;22;20027;-78
2024/01/20 03:55:04;;;;;;;14.30;5.50;;;-1.80;99.90;;;;;;6300803;22;20042;-77
2024/01/20 03:57:32;;;;;;;14.43;4.72;;;-1.90;99.90;;;;;;6296890;22;20026;-78
2024/01/20 04:00:00;;;;;;;11.85;4.72;;;-1.90;99.90;;;;;;6302245;22;20041;-77
2024/01/20 04:02:33;;;;;;;10.05;4.50;;;-1.50;99.90;;;;;;6298086;22;20106;-77
2024/01/20 04:05:01;;;;;;;11.07;4.43;;;-1.90;99.90;;;;;;6297642;22;20019;-76
2024/01/20 04:07:30;;;;;;;11.15;3.60;;;-1.90;99.90;;;;;;6297154;22;20027;-78
2024/01/20 04:09:58;;;;;;;11.93;4.78;;;-2.20;99.90;;;;;;6296428;22;20054;-77
2024/01/20 04:12:27;;;;;;;10.48;3.85;;;-2.00;99.90;;;;;;6300004;22;20033;-77
2024/01/20 04:14:56;;;;;;;9.23;3.63;;;-1.90;99.90;;;;;;6296135;22;20031;-78
2024/01/20 04:17:24;;;;;;;10.60;3.13;;;-1.90;99.90;;;;;;6295415;22;20081;-79
2024/01/20 04:19:54;;;;;;;16.35;3.10;;;-2.00;99.90;;;;;;6299729;22;20076;-77
2024/01/20 04:22:23;;;;;;;13.70;3.95;;;-2.00;99.90;;;;;;6295440;22;20037;-77
2024/01/20 04:24:51;;;;;;;10.52;4.40;;;-2.00;99.90;;;;;;6300651;22;20019;-77
2024/01/20 04:27:20;;;;;;;15.57;3.90;;;-2.00;99.90;;;;;;6296631;22;20089;-77
2024/01/20 04:29:48;;;;;;;9.57;3.58;;;-2.10;99.90;;;;;;6299072;22;20456;-78
2024/01/20 04:32:17;;;;;;;13.88;4.10;;;-2.00;99.90;;;;;;6295863;22;20027;-78
2024/01/20 04:34:45;;;;;;;14.68;4.72;;;-2.20;99.90;;;;;;6299777;22;20031;-77
2024/01/20 04:37:15;;;;;;;13.55;4.70;;;-2.00;99.90;;;;;;6295812;22;20102;-78
2024/01/20 04:39:43;;;;;;;8.85;4.13;;;-2.30;99.90;;;;;;6296344;22;20019;-78
2024/01/20 04:42:12;;;;;;;12.05;4.40;;;-2.30;99.90;;;;;;6295514;22;20038;-78
2024/01/20 04:44:40;;;;;;;10.88;3.90;;;-2.40;99.90;;;;;;6296612;22;20068;-78
2024/01/20 04:47:09;;;;;;;13.35;3.63;;;-2.30;99.90;;;;;;6295714;22;20080;-78
2024/01/20 04:49:37;;;;;;;14.88;4.85;;;-2.50;99.90;;;;;;6298924;22;20019;-77
2024/01/20 04:52:06;;;;;;;14.55;5.10;;;-2.50;99.90;;;;;;6297007;22;20337;-77
2024/01/20 04:54:36;;;;;;;13.25;4.68;;;-2.50;99.90;;;;;;6295158;22;20047;-77
2024/01/20 04:57:05;;;;;;;11.93;5.05;;;-2.50;99.90;;;;;;6294282;22;20479;-77
2024/01/20 04:59:33;;;;;;;16.83;5.85;;;-2.60;99.90;;;;;;6297246;22;20391;-78
2024/01/20 05:02:02;;;;;;;17.90;5.80;;;-2.70;99.90;;;;;;6293233;22;20027;-78
2024/01/20 05:04:30;;;;;;;14.90;5.70;;;-2.60;99.90;;;;;;6295354;22;20577;-78
2024/01/20 05:06:59;;;;;;;16.77;6.32;;;-2.60;99.90;;;;;;6299220;22;20736;-77
2024/01/20 05:09:28;;;;;;;17.83;5.82;;;-2.70;99.90;;;;;;6294933;22;20860;-78
2024/01/20 05:11:57;;;;;;;15.68;5.20;;;-2.70;99.90;;;;;;6295759;22;20064;-78
2024/01/20 05:14:26;;;;;;;17.35;5.60;;;-2.70;99.90;;;;;;6297367;22;20046;-78
2024/01/20 05:16:54;;;;;;;14.65;5.60;;;-2.70;99.90;;;;;;6294365;22;20120;-77
2024/01/20 05:19:23;;;;;;;10.70;5.03;;;-2.70;99.90;;;;;;6294913;22;20597;-78
2024/01/20 05:21:51;;;;;;;16.30;5.53;;;-2.70;99.90;;;;;;6295668;22;20105;-78
2024/01/20 05:24:20;;;;;;;12.52;5.18;;;-2.80;99.90;;;;;;6293353;22;20134;-77
2024/01/20 05:26:49;;;;;;;16.05;6.68;;;-2.30;99.90;;;;;;6300194;22;20117;-77
2024/01/20 05:29:18;;;;;;;14.70;6.18;;;-2.80;99.90;;;;;;6297080;22;20022;-78
2024/01/20 05:31:47;;;;;;;16.70;6.20;;;-2.80;99.90;;;;;;6294341;22;20527;-77
2024/01/20 05:34:15;;;;;;;15.50;6.70;;;-2.00;99.90;;;;;;6311595;22;20021;-78
2024/01/20 05:36:44;;;;;;;11.93;4.90;;;-2.80;99.90;;;;;;6297929;22;20022;-77
2024/01/20 05:39:12;;;;;;;16.98;6.00;;;-2.90;99.90;;;;;;6303500;22;20042;-77
2024/01/20 05:41:40;;;;;;;12.52;6.28;;;-2.90;99.90;;;;;;6307988;22;20002;-80
2024/01/20 05:44:09;;;;;;;17.30;5.95;;;-2.90;99.90;;;;;;6330719;22;20018;-78
2024/01/20 05:46:40;;;;;;;17.33;6.85;;;-3.00;99.90;;;;;;6327396;22;20026;-78
2024/01/20 05:49:09;;;;;;;10.90;6.00;;;-3.00;99.90;;;;;;6327858;22;20014;-79
2024/01/20 05:51:38;;;;;;;19.63;6.78;;;-3.00;99.90;;;;;;6327101;22;20005;-79
2024/01/20 05:54:06;;;;;;;16.63;6.15;;;-3.00;99.90;;;;;;6355236;22;20002;-79
2024/01/20 05:56:36;;;;;;;13.38;6.15;;;-3.10;99.90;;;;;;6329163;22;20011;-79
2024/01/20 05:59:04;;;;;;;15.38;5.65;;;-3.10;99.90;;;;;;6328265;22;20032;-79
2024/01/20 06:01:32;;;;;;;17.48;7.10;;;-3.10;99.90;;;;;;6330745;22;20003;-79
2024/01/20 06:04:04;;;;;;;16.70;6.78;;;-3.20;99.90;;;;;;6327837;22;20011;-79
2024/01/20 06:06:32;;;;;;;25.33;7.63;;;-2.80;99.90;;;;;;6354540;22;20068;-79
2024/01/20 06:09:02;;;;;;;19.17;7.70;;;-2.50;99.90;;;;;;6359205;22;20015;-79
2024/01/20 06:11:32;;;;;;;23.23;8.48;;;-4.40;99.90;;;;;;6330686;22;20003;-79
2024/01/20 06:14:01;;;;;;;19.67;8.75;;;-2.20;99.90;;;;;;6355033;22;19995;-79
2024/01/20 06:16:30;;;;;;;23.35;9.50;;;-3.70;99.90;;;;;;6332778;22;20029;-79
2024/01/20 06:18:59;;;;;;;20.75;8.55;;;-3.30;99.90;;;;;;6327723;22;20030;-79
2024/01/20 06:21:29;;;;;;;21.98;8.52;;;-3.40;99.90;;;;;;6355510;22;20059;-79
2024/01/20 06:23:58;;;;;;;23.60;8.85;;;-3.40;99.90;;;;;;6331829;22;20021;-80
2024/01/20 06:26:27;;;;;;;21.83;9.10;;;-2.50;99.90;;;;;;6329104;22;20053;-79
2024/01/20 06:28:57;;;;;;;26.23;8.00;;;-3.80;99.90;;;;;;6328228;22;20019;-80
2024/01/20 06:31:26;;;;;;;29.20;10.43;;;-4.20;99.90;;;;;;6328299;22;20002;-79
2024/01/20 06:33:56;;;;;;;26.60;10.32;;;-2.90;99.90;;;;;;6356011;22;20018;-79
2024/01/20 06:36:26;;;;;;;30.60;10.35;;;-3.30;99.90;;;;;;6327885;22;20003;-79
2024/01/20 06:38:56;;;;;;;27.75;11.05;;;-3.60;99.90;;;;;;6329686;22;20025;-79
2024/01/20 06:41:25;;;;;;;33.33;13.45;;;-2.90;99.90;;;;;;6331424;22;20003;-78
2024/01/20 06:43:54;;;;;;;37.17;13.95;;;-2.50;99.90;;;;;;6330070;22;20019;-79
2024/01/20 06:46:23;;;;;;;38.13;13.55;;;-4.40;99.90;;;;;;6330278;22;20049;-78
2024/01/20 06:48:52;;;;;;;30.90;14.70;;;-3.50;99.90;;;;;;6323850;22;20064;-79
2024/01/20 06:51:25;;;;;;;38.22;14.73;;;-2.40;99.90;;;;;;6318576;22;20014;-78
2024/01/20 06:53:57;;;;;;;42.60;16.63;;;-2.60;99.90;;;;;;6300478;22;20110;-78
2024/01/20 06:56:27;;;;;;;44.42;15.38;;;-3.50;99.90;;;;;;6298204;22;20125;-77
2024/01/20 06:58:56;;;;;;;43.97;14.20;;;-3.40;99.90;;;;;;6296942;22;20018;-77
2024/01/20 07:01:25;;;;;;;29.42;11.85;;;-3.60;99.90;;;;;;6296634;22;20378;-78
2024/01/20 07:03:54;;;;;;;28.55;11.73;;;-3.50;99.90;;;;;;6300783;22;20724;-77
2024/01/20 07:06:24;;;;;;;25.50;10.48;;;-3.40;99.90;;;;;;6300523;22;20100;-77
2024/01/20 07:08:54;;;;;;;41.15;14.63;;;-3.30;99.90;;;;;;6300098;22;20684;-77
2024/01/20 07:11:26;;;;;;;29.27;11.27;;;-3.20;99.90;;;;;;6298881;22;20027;-77
2024/01/20 07:13:55;;;;;;;39.08;12.82;;;-3.20;99.90;;;;;;6297448;22;20027;-77
2024/01/20 07:16:24;;;;;;;47.00;14.60;;;-3.20;99.90;;;;;;6298025;22;20625;-77
2024/01/20 07:18:52;;;;;;;40.05;14.45;;;-3.10;99.90;;;;;;6297345;22;20704;-77
2024/01/20 07:21:23;;;;;;;38.72;12.07;;;-3.00;99.90;;;;;;6325452;22;20764;-77
2024/01/20 07:23:51;;;;;;;28.80;9.45;;;-3.00;99.90;;;;;;6325058;22;20030;-77
2024/01/20 07:26:20;;;;;;;29.92;10.70;;;-3.00;99.90;;;;;;6296975;22;20027;-77
2024/01/20 07:28:50;;;;;;;39.80;12.77;;;-2.90;99.90;;;;;;6297651;22;20061;-77
2024/01/20 07:31:18;;;;;;;38.17;15.93;;;-1.80;99.90;;;;;;6306009;22;20015;-77
2024/01/20 07:33:47;;;;;;;52.60;17.23;;;-2.30;99.90;;;;;;6297267;22;20109;-77
2024/01/20 07:36:15;;;;;;;49.08;17.27;;;-2.70;99.90;;;;;;6325077;22;20026;-77
2024/01/20 07:38:44;;;;;;;49.33;18.55;;;-2.60;99.90;;;;;;6296737;22;20022;-77
2024/01/20 07:41:12;;;;;;;47.42;18.17;;;-2.50;99.90;;;;;;6328905;22;20110;-77
2024/01/20 07:43:41;;;;;;;45.70;18.77;;;-2.40;99.90;;;;;;6324561;22;20022;-77
2024/01/20 07:46:12;;;;;;;51.13;17.58;;;-2.30;99.90;;;;;;6298976;22;20083;-77
2024/01/20 07:48:40;;;;;;;53.90;18.98;;;-2.20;99.90;;;;;;6330175;22;20704;-77
2024/01/20 07:51:10;;;;;;;53.78;20.88;;;-2.10;99.90;;;;;;6300836;22;20023;-77
2024/01/20 07:53:38;;;;;;;33.25;14.70;;;-2.10;99.90;;;;;;6297378;22;20052;-76
2024/01/20 07:56:09;;;;;;;68.03;22.77;;;-2.00;99.90;;;;;;6296770;22;20041;-77
2024/01/20 07:58:37;;;;;;;48.28;18.95;;;-1.90;99.90;;;;;;6297985;22;20022;-77
2024/01/20 08:01:06;;;;;;;24.75;10.85;;;-1.90;99.90;;;;;;6297101;22;20564;-77
2024/01/20 08:03:36;;;;;;;26.35;10.93;;;-1.80;99.90;;;;;;6303870;22;20022;-77
2024/01/20 08:06:05;;;;;;;23.02;9.73;;;-1.80;99.90;;;;;;6296914;22;20333;-77
2024/01/20 08:08:34;;;;;;;21.60;8.65;;;-1.80;99.90;;;;;;6323713;22;20687;-77
2024/01/20 08:11:02;;;;;;;18.88;8.55;;;-1.80;99.90;;;;;;6296856;22;20026;-77
2024/01/20 08:13:31;;;;;;;20.25;9.77;;;-1.70;99.90;;;;;;6296782;22;20442;-77
2024/01/20 08:15:59;;;;;;;22.50;9.55;;;-1.60;99.90;;;;;;6296151;22;20466;-77
2024/01/20 08:18:27;;;;;;;21.88;9.30;;;-1.50;99.90;;;;;;6296026;22;20720;-77
2024/01/20 08:20:57;;;;;;;20.83;10.00;;;-1.50;99.90;;;;;;6328291;22;20015;-77
2024/01/20 08:23:26;;;;;;;26.08;11.00;;;-1.40;99.90;;;;;;6327552;22;20018;-77
2024/01/20 08:25:54;;;;;;;30.42;10.18;;;-1.40;99.90;;;;;;6299081;22;20027;-77
2024/01/20 08:28:23;;;;;;;32.40;12.32;;;-1.20;99.90;;;;;;6299879;22;20023;-77
2024/01/20 08:30:51;;;;;;;34.72;12.60;;;-1.10;99.90;;;;;;6298279;22;20025;-78
2024/01/20 08:33:19;;;;;;;34.40;12.40;;;-1.00;99.90;;;;;;6297799;22;20026;-78
2024/01/20 08:35:49;;;;;;;30.33;12.25;;;-0.90;99.90;;;;;;6298121;22;20094;-78
2024/01/20 08:38:20;;;;;;;26.42;9.93;;;-0.90;99.90;;;;;;6297309;22;20022;-78
2024/01/20 08:40:48;;;;;;;30.27;12.20;;;-0.80;99.90;;;;;;6295532;22;20779;-78
2024/01/20 08:43:17;;;;;;;26.67;11.25;;;-0.80;99.90;;;;;;6325128;22;20023;-78
2024/01/20 08:45:45;;;;;;;24.80;11.20;;;-0.70;99.90;;;;;;6298228;22;20645;-78
2024/01/20 08:48:13;;;;;;;28.20;11.85;;;-0.70;99.90;;;;;;6300108;22;20027;-79
2024/01/20 08:50:42;;;;;;;28.63;12.25;;;-0.70;99.90;;;;;;6328934;22;20051;-79
2024/01/20 08:53:11;;;;;;;30.25;12.27;;;-0.60;99.90;;;;;;6329315;22;20003;-79
2024/01/20 08:55:40;;;;;;;31.02;11.63;;;-0.50;99.90;;;;;;6329634;22;20067;-79
2024/01/20 08:58:09;;;;;;;31.60;11.63;;;-0.50;99.90;;;;;;6357558;22;20006;-79
2024/01/20 09:00:39;;;;;;;41.40;14.93;;;-0.50;99.90;;;;;;6327357;22;20033;-79
2024/01/20 09:03:08;;;;;;;33.20;12.77;;;-1.70;99.90;;;;;;6328273;22;20013;-77
2024/01/20 09:05:36;;;;;;;25.42;10.90;;;-0.70;99.90;;;;;;6358125;22;20440;-79
2024/01/20 09:08:09;;;;;;;28.13;11.88;;;0.70;99.90;;;;;;6356129;22;19999;-79
2024/01/20 09:10:40;;;;;;;24.40;10.52;;;-0.20;99.90;;;;;;6355420;22;20003;-79
2024/01/20 09:13:09;;;;;;;25.80;11.00;;;-0.30;99.90;;;;;;6328508;22;20006;-80
2024/01/20 09:15:37;;;;;;;30.05;11.57;;;-0.30;99.90;;;;;;6329776;22;19995;-79
2024/01/20 09:18:08;;;;;;;27.88;10.93;;;-0.20;99.90;;;;;;6328739;22;20022;-79
2024/01/20 09:20:37;;;;;;;46.72;19.77;;;-0.70;99.90;;;;;;6329012;22;20002;-79
2024/01/20 09:23:06;;;;;;;51.33;19.88;;;0.00;99.90;;;;;;6327945;22;20068;-80
2024/01/20 09:25:38;;;;;;;37.67;15.82;;;-0.20;99.90;;;;;;6328920;22;20003;-80
2024/01/20 09:28:08;;;;;;;47.75;20.83;;;-0.80;99.90;;;;;;6327694;22;20018;-82
2024/01/20 09:30:39;;;;;;;30.33;13.25;;;-0.60;99.90;;;;;;6330154;22;20013;-82
2024/01/20 09:36:37;;;;;;;31.33;12.57;;;0.20;99.90;;;;;;6256845;22;20047;-84
2024/01/20 09:42:53;;;;;;;30.80;13.20;;;0.40;99.90;;;;;;6315269;22;20013;-81
2024/01/20 10:59:53;;;;;;;23.80;10.73;;;2.00;99.90;;;;;;6302789;22;20007;-80
2024/01/20 12:26:14;;;;;;;18.48;7.50;;;3.30;99.90;;;;;;5824622;24;20027;-78
2024/01/20 12:29:37;;;;;;;7.68;2.90;;;3.50;99.90;;;;;;5859184;24;20066;-82
2024/01/20 12:41:33;;;;;;;12.23;3.40;;;3.60;99.90;;;;;;5872032;24;20029;-81
2024/01/20 14:50:33;;;;;;;19.23;6.78;;;1.60;99.90;;;;;;6315435;22;20057;-80
2024/01/20 14:53:03;;;;;;;23.55;8.40;;;1.50;99.90;;;;;;6260679;23;20027;-80
2024/01/20 14:55:36;;;;;;;19.45;7.80;;;1.40;99.90;;;;;;6236880;23;20001;-81
2024/01/20 14:58:05;;;;;;;14.15;5.82;;;1.50;99.90;;;;;;6235154;22;20402;-79
2024/01/20 15:00:34;;;;;;;13.13;5.72;;;1.50;99.90;;;;;;6236635;22;20000;-81
2024/01/20 15:03:04;;;;;;;16.63;8.07;;;1.40;99.90;;;;;;6235230;22;20020;-80
2024/01/20 15:06:09;;;;;;;19.95;6.82;;;1.40;99.90;;;;;;6154920;23;20012;-80
2024/01/20 15:08:41;;;;;;;16.50;5.55;;;1.40;99.90;;;;;;6171555;23;20017;-80
2024/01/20 15:11:10;;;;;;;27.83;7.38;;;0.50;99.90;;;;;;6176159;23;20027;-79
2024/01/20 15:13:51;;;;;;;41.58;12.95;;;1.10;99.90;;;;;;6174270;23;20021;-82
2024/01/20 15:17:20;;;;;;;44.67;12.23;;;1.10;99.90;;;;;;6196813;23;20009;-80
2024/01/20 15:19:49;;;;;;;54.85;16.33;;;1.00;99.90;;;;;;6139289;23;20017;-80
2024/01/20 15:22:20;;;;;;;44.22;13.65;;;1.30;99.90;;;;;;6138288;23;20024;-79
2024/01/20 15:27:52;;;;;;;54.72;17.05;;;0.80;99.90;;;;;;6256232;22;20047;-80
2024/01/20 15:30:21;;;;;;;41.30;13.88;;;0.60;99.90;;;;;;6260979;22;20353;-80
2024/01/20 15:32:50;;;;;;;24.40;9.73;;;0.60;99.90;;;;;;6261395;22;20081;-80
2024/01/20 15:35:19;;;;;;;20.70;7.35;;;1.20;99.90;;;;;;6266242;22;20020;-81
2024/01/20 15:46:58;;;;;;;13.23;4.80;;;0.60;99.90;;;;;;6197721;23;20408;-79
2024/01/20 15:49:27;;;;;;;15.02;4.68;;;0.60;99.90;;;;;;6202053;23;20012;-79
2024/01/20 15:51:56;;;;;;;16.40;5.97;;;0.60;99.90;;;;;;6201246;23;20029;-80
2024/01/20 15:54:26;;;;;;;13.27;5.10;;;0.50;99.90;;;;;;6222299;23;20013;-79
2024/01/20 15:56:55;;;;;;;20.10;6.45;;;0.40;99.90;;;;;;6201187;23;20020;-79
2024/01/20 15:59:24;;;;;;;20.20;6.80;;;0.30;99.90;;;;;;6174754;23;20005;-81
2024/01/20 16:01:56;;;;;;;44.75;16.25;;;1.60;99.90;;;;;;6173276;23;20004;-79
2024/01/20 16:04:26;;;;;;;34.00;13.80;;;0.30;99.90;;;;;;6199225;23;20023;-79
2024/01/20 16:06:55;;;;;;;24.83;9.43;;;-0.80;99.90;;;;;;6199386;23;20313;-79
2024/01/20 16:09:29;;;;;;;24.50;9.35;;;0.50;99.90;;;;;;6173157;23;20316;-79
2024/01/20 16:12:07;;;;;;;17.95;7.07;;;-0.20;99.90;;;;;;6196097;23;20019;-75
2024/01/20 16:14:36;;;;;;;13.93;5.15;;;0.00;99.90;;;;;;6184067;23;20017;-75
2024/01/20 16:17:04;;;;;;;15.50;5.90;;;-0.10;99.90;;;;;;6207298;23;20083;-75
2024/01/20 16:19:35;;;;;;;15.27;5.75;;;-0.10;99.90;;;;;;6178194;23;20079;-75
2024/01/20 16:22:04;;;;;;;17.80;5.90;;;-0.10;99.90;;;;;;6180708;23;20101;-75
2024/01/20 16:24:36;;;;;;;13.20;5.35;;;-0.10;99.90;;;;;;6191591;23;20009;-78
2024/01/20 16:27:05;;;;;;;11.90;5.40;;;-0.20;99.90;;;;;;6223065;23;20001;-78
2024/01/20 16:29:37;;;;;;;17.00;6.32;;;-0.20;99.90;;;;;;6195828;23;20021;-78
2024/01/20 16:32:09;;;;;;;21.88;8.20;;;-0.10;99.90;;;;;;6199782;23;20008;-78
2024/01/20 16:34:39;;;;;;;19.30;7.05;;;-0.30;99.90;;;;;;6199607;23;20021;-77
2024/01/20 16:37:08;;;;;;;19.90;7.85;;;-0.20;99.90;;;;;;6174500;23;20017;-78
2024/01/20 16:39:37;;;;;;;30.05;10.43;;;-0.20;99.90;;;;;;6197213;23;20012;-78
2024/01/20 16:42:08;;;;;;;36.42;12.82;;;-0.30;99.90;;;;;;6197618;23;20024;-79
2024/01/20 16:44:37;;;;;;;44.30;15.30;;;-0.50;99.90;;;;;;6198608;23;20017;-78
2024/01/20 16:47:06;;;;;;;38.00;13.05;;;-0.30;99.90;;;;;;6231564;22;20023;-78
2024/01/20 16:49:38;;;;;;;36.33;12.10;;;-0.40;99.90;;;;;;6205832;22;20028;-79
2024/01/20 16:52:09;;;;;;;52.30;19.38;;;1.30;99.90;;;;;;6230055;22;20007;-78
2024/01/20 16:54:38;;;;;;;155.07;67.72;;;-0.40;99.90;;;;;;6227707;23;20005;-77
2024/01/20 16:57:09;;;;;;;101.18;62.20;;;-0.40;99.90;;;;;;6228071;22;20056;-78
2024/01/20 16:59:39;;;;;;;23.60;11.30;;;-0.50;99.90;;;;;;6229897;22;20023;-78
2024/01/20 17:02:07;;;;;;;17.67;7.72;;;-0.40;99.90;;;;;;6204494;23;20018;-78
2024/01/20 17:04:39;;;;;;;24.80;9.88;;;0.20;99.90;;;;;;6202425;23;20021;-78
2024/01/20 17:07:13;;;;;;;26.58;8.57;;;-0.60;99.90;;;;;;6203003;22;20082;-78
2024/01/20 17:09:42;;;;;;;19.48;8.23;;;-0.60;99.90;;;;;;6232944;22;20008;-79
2024/01/20 17:12:11;;;;;;;24.33;9.55;;;0.10;99.90;;;;;;6202386;22;20015;-79
2024/01/20 17:14:42;;;;;;;19.63;6.63;;;-0.90;99.90;;;;;;6203145;23;20017;-78
2024/01/20 17:17:11;;;;;;;15.40;6.95;;;-0.80;99.90;;;;;;6227160;22;20013;-78
2024/01/20 17:19:42;;;;;;;16.02;7.40;;;-0.80;99.90;;;;;;6231074;22;20003;-78
2024/01/20 17:22:12;;;;;;;17.20;7.07;;;0.30;99.90;;;;;;6195236;23;20517;-76
2024/01/20 17:24:41;;;;;;;28.48;10.48;;;-0.90;99.90;;;;;;6179831;23;20034;-77
2024/01/20 17:27:10;;;;;;;36.15;17.83;;;-0.90;99.90;;;;;;6178608;23;20021;-77
2024/01/20 17:29:38;;;;;;;47.20;21.38;;;-0.90;99.90;;;;;;6178296;23;20024;-75
2024/01/20 17:32:08;;;;;;;32.45;13.65;;;-0.90;99.90;;;;;;6203588;23;20024;-79
2024/01/20 17:34:36;;;;;;;26.95;11.20;;;-0.90;99.90;;;;;;6203664;23;20537;-75
2024/01/20 17:37:05;;;;;;;22.67;11.88;;;-1.00;99.90;;;;;;6177496;23;20020;-76
2024/01/20 17:39:37;;;;;;;22.33;9.43;;;-1.10;99.90;;;;;;6203199;23;20025;-75
2024/01/20 17:42:06;;;;;;;30.88;10.70;;;-0.50;99.90;;;;;;6202981;23;20120;-75
2024/01/20 17:44:35;;;;;;;31.05;12.57;;;-1.20;99.90;;;;;;6200501;23;20619;-77
2024/01/20 17:47:04;;;;;;;31.70;13.52;;;-1.10;99.90;;;;;;6175860;23;20052;-75
2024/01/20 17:49:32;;;;;;;30.23;12.57;;;-1.20;99.90;;;;;;6178375;23;20484;-75
2024/01/20 17:52:01;;;;;;;31.50;12.65;;;-1.20;99.90;;;;;;6176163;23;20413;-76
2024/01/20 17:54:31;;;;;;;30.50;11.65;;;-1.30;99.90;;;;;;6176463;23;20040;-74
2024/01/20 17:57:02;;;;;;;26.17;10.02;;;-1.30;99.90;;;;;;6177708;23;20024;-75
2024/01/20 17:59:31;;;;;;;22.08;8.13;;;-1.30;99.90;;;;;;6176176;23;20024;-75
2024/01/20 18:01:59;;;;;;;22.35;7.55;;;-1.30;99.90;;;;;;6177723;23;20648;-75
2024/01/20 18:04:28;;;;;;;18.48;7.68;;;-1.40;99.90;;;;;;6201932;23;20048;-75
2024/01/20 18:06:56;;;;;;;18.40;7.75;;;-0.70;99.90;;;;;;6178975;23;20020;-76
2024/01/20 18:09:26;;;;;;;24.40;8.20;;;-1.40;99.90;;;;;;6204696;23;20103;-75
2024/01/20 18:11:54;;;;;;;29.65;10.55;;;-1.50;99.90;;;;;;6180607;23;20020;-74
2024/01/20 18:14:24;;;;;;;20.55;8.80;;;-1.50;99.90;;;;;;6177896;23;20127;-79
2024/01/20 18:16:53;;;;;;;22.48;9.27;;;-1.40;99.90;;;;;;6207250;23;20756;-76
2024/01/20 18:19:21;;;;;;;24.42;9.07;;;-1.10;99.90;;;;;;6209396;23;20029;-74
2024/01/20 18:21:50;;;;;;;27.17;9.98;;;-1.30;99.90;;;;;;6184891;23;20576;-74
2024/01/20 18:35:58;;;;;;;72.13;29.75;;;-1.40;99.90;;;;;;6321476;22;20030;-78
2024/01/20 18:38:31;;;;;;;44.67;18.60;;;-1.50;99.90;;;;;;6321212;22;20008;-78
2024/01/20 18:41:02;;;;;;;26.08;12.38;;;-1.40;99.90;;;;;;6294406;22;19999;-78